Time;durP1;ratioP1;P1;durP2;ratioP2;P2;SDS_P1;SDS_P2;PMS_P1;PMS_P2;Temp;Humidity;BMP_temperature;BMP_pressure;BME280_temperature;BME280_humidity;BME280_pressure;Samples;Min_cycle;Max_cycle;Signal;HPM_P1;HPM_P2
2022/06/11 00:01:40;;;;;;;;;;;17.40;99.90;;;;;;5094288;27;37313;-57
2022/06/11 00:04:09;;;;;;;;;;;17.40;99.90;;;;;;5093676;28;36593;-57
2022/06/11 00:06:37;;;;;;;;;;;17.30;99.90;;;;;;5093150;27;35035;-57
2022/06/11 00:09:05;;;;;;;;;;;17.30;99.90;;;;;;5092707;28;37638;-56
2022/06/11 00:11:33;;;;;;;;;;;17.20;99.90;;;;;;5093770;28;37278;-56
2022/06/11 00:14:01;;;;;;;;;;;17.20;99.90;;;;;;5091646;27;37860;-57
2022/06/11 00:16:29;;;;;;;;;;;17.20;99.90;;;;;;5092610;27;37051;-57
2022/06/11 00:18:57;;;;;;;;;;;17.10;99.90;;;;;;5092411;27;38614;-57
2022/06/11 00:21:26;;;;;;;;;;;17.10;99.90;;;;;;5092598;27;37688;-57
2022/06/11 00:23:53;;;;;;;;;;;17.10;99.90;;;;;;5092343;27;36236;-57
2022/06/11 00:26:22;;;;;;;;;;;17.00;99.90;;;;;;5091673;27;36532;-57
2022/06/11 00:28:49;;;;;;;;;;;17.00;99.90;;;;;;5093330;28;37327;-57
2022/06/11 00:31:18;;;;;;;;;;;16.90;99.90;;;;;;5092617;27;38722;-57
2022/06/11 00:33:45;;;;;;;;;;;16.90;99.90;;;;;;5092056;27;37368;-58
2022/06/11 00:36:13;;;;;;;;;;;16.80;99.90;;;;;;5093138;28;36327;-57
2022/06/11 00:38:41;;;;;;;;;;;16.80;99.90;;;;;;5093426;27;36415;-56
2022/06/11 00:41:08;;;;;;;;;;;16.70;99.90;;;;;;5093095;27;39160;-57
2022/06/11 00:43:37;;;;;;;;;;;16.70;99.90;;;;;;5093424;27;38006;-57
2022/06/11 00:46:19;;;;;;;;;;;16.70;99.90;;;;;;5092736;28;34906;-57
2022/06/11 00:48:48;;;;;;;;;;;16.60;99.90;;;;;;5092748;28;40599;-57
2022/06/11 00:51:17;;;;;;;;;;;16.60;99.90;;;;;;5092900;27;37476;-57
2022/06/11 00:53:46;;;;;;;;;;;16.50;99.90;;;;;;5092016;27;36373;-57
2022/06/11 00:56:17;;;;;;;;;;;16.50;99.90;;;;;;5090830;27;37114;-57
2022/06/11 00:58:46;;;;;;;;;;;16.50;99.90;;;;;;5092574;27;39259;-57
2022/06/11 01:01:14;;;;;;;;;;;16.50;99.90;;;;;;5092829;27;37982;-58
2022/06/11 01:03:44;;;;;;;;;;;16.50;99.90;;;;;;5092756;27;37334;-57
2022/06/11 01:06:16;;;;;;;;;;;16.50;99.90;;;;;;5092261;27;36937;-57
2022/06/11 01:08:52;;;;;;;;;;;16.50;99.90;;;;;;5092331;28;37216;-57
2022/06/11 01:11:26;;;;;;;;;;;16.50;99.90;;;;;;5092610;27;39425;-57
2022/06/11 01:13:57;;;;;;;;;;;16.50;99.90;;;;;;5092158;28;36979;-57
2022/06/11 01:16:28;;;;;;;;;;;16.40;99.90;;;;;;5092859;27;36508;-57
2022/06/11 01:18:59;;;;;;;;;;;16.40;99.90;;;;;;5092974;27;38762;-57
2022/06/11 01:21:34;;;;;;;;;;;16.40;99.90;;;;;;5092950;27;38199;-57
2022/06/11 01:24:16;;;;;;;;;;;16.40;99.90;;;;;;5091378;27;37244;-57
2022/06/11 01:26:53;;;;;;;;;;;16.40;99.90;;;;;;5091654;27;36721;-57
2022/06/11 01:29:34;;;;;;;;;;;16.40;99.90;;;;;;5092418;27;39097;-57
2022/06/11 01:32:04;;;;;;;;;;;16.30;99.90;;;;;;5091704;28;37763;-57
2022/06/11 01:34:38;;;;;;;;;;;16.30;99.90;;;;;;5091908;27;37476;-57
2022/06/11 01:37:07;;;;;;;;;;;16.30;99.90;;;;;;5092292;27;37314;-57
2022/06/11 01:39:35;;;;;;;;;;;16.30;99.90;;;;;;5092111;27;37096;-57
2022/06/11 01:42:03;;;;;;;;;;;16.30;99.90;;;;;;5091935;27;37280;-57
2022/06/11 01:44:35;;;;;;;;;;;16.30;99.90;;;;;;5092334;27;37116;-57
2022/06/11 01:47:03;;;;;;;;;;;16.30;99.90;;;;;;5091518;27;37289;-57
2022/06/11 01:49:39;;;;;;;;;;;16.20;99.90;;;;;;5092374;27;38441;-57
2022/06/11 01:52:12;;;;;;;;;;;16.20;99.90;;;;;;5090719;27;39290;-57
2022/06/11 01:54:44;;;;;;;;;;;16.20;99.90;;;;;;5090182;27;38474;-57
2022/06/11 01:57:25;;;;;;;;;;;16.20;99.90;;;;;;5091966;27;37353;-57
2022/06/11 01:59:59;;;;;;;;;;;16.10;99.90;;;;;;5091736;27;38051;-57
2022/06/11 02:02:33;;;;;;;;;;;16.10;99.90;;;;;;5091656;27;38113;-57
2022/06/11 02:05:02;;;;;;;;;;;16.10;99.90;;;;;;5091197;27;39401;-57
2022/06/11 02:07:33;;;;;;;;;;;16.00;99.90;;;;;;5089924;27;36086;-57
2022/06/11 02:10:04;;;;;;;;;;;16.00;99.90;;;;;;5091347;27;38644;-57
2022/06/11 02:12:34;;;;;;;;;;;16.00;99.90;;;;;;5091983;28;38796;-57
2022/06/11 02:15:05;;;;;;;;;;;16.00;99.90;;;;;;5091276;27;38451;-57
2022/06/11 02:17:34;;;;;;;;;;;15.90;99.90;;;;;;5089972;27;37050;-57
2022/06/11 02:20:04;;;;;;;;;;;15.90;99.90;;;;;;5091575;27;37644;-56
2022/06/11 02:22:33;;;;;;;;;;;15.90;99.90;;;;;;5090221;27;37671;-57
2022/06/11 02:25:04;;;;;;;;;;;15.90;99.90;;;;;;5091618;28;38162;-56
2022/06/11 02:27:32;;;;;;;;;;;15.90;99.90;;;;;;5092242;27;36486;-57
2022/06/11 02:29:59;;;;;;;;;;;15.90;99.90;;;;;;5090833;27;36704;-57
2022/06/11 02:32:32;;;;;;;;;;;15.80;99.90;;;;;;5091947;27;40203;-56
2022/06/11 02:35:00;;;;;;;;;;;15.80;99.90;;;;;;5091451;27;35833;-57
2022/06/11 02:37:29;;;;;;;;;;;15.80;99.90;;;;;;5090357;27;38061;-57
2022/06/11 02:39:58;;;;;;;;;;;15.80;99.90;;;;;;5092259;27;36479;-57
2022/06/11 02:42:26;;;;;;;;;;;15.70;99.90;;;;;;5091015;27;38939;-57
2022/06/11 02:44:53;;;;;;;;;;;15.70;99.90;;;;;;5092298;27;35942;-57
2022/06/11 02:47:21;;;;;;;;;;;15.70;99.90;;;;;;5091750;27;37793;-57
2022/06/11 02:49:50;;;;;;;;;;;15.70;99.90;;;;;;5091796;27;37820;-58
2022/06/11 02:52:18;;;;;;;;;;;15.60;99.90;;;;;;5090019;27;37767;-56
2022/06/11 02:54:45;;;;;;;;;;;15.60;99.90;;;;;;5090235;27;37124;-57
2022/06/11 02:57:14;;;;;;;;;;;15.60;99.90;;;;;;5091251;27;35130;-57
2022/06/11 02:59:42;;;;;;;;;;;15.60;99.90;;;;;;5089274;27;37593;-57
2022/06/11 03:02:10;;;;;;;;;;;15.60;99.90;;;;;;5090155;28;38933;-57
2022/06/11 03:04:37;;;;;;;;;;;15.60;99.90;;;;;;5090716;27;38021;-57
2022/06/11 03:07:07;;;;;;;;;;;15.60;99.90;;;;;;5090136;27;36165;-57
2022/06/11 03:09:35;;;;;;;;;;;15.60;99.90;;;;;;5090366;27;37516;-57
2022/06/11 03:12:03;;;;;;;;;;;15.50;99.90;;;;;;5090932;27;38412;-57
2022/06/11 03:14:30;;;;;;;;;;;15.50;99.90;;;;;;5090255;27;37013;-57
2022/06/11 03:16:57;;;;;;;;;;;15.50;99.90;;;;;;5089469;27;34328;-57
2022/06/11 03:19:24;;;;;;;;;;;15.40;99.90;;;;;;5091237;27;38339;-57
2022/06/11 03:21:53;;;;;;;;;;;15.40;99.90;;;;;;5094096;28;36799;-56
2022/06/11 03:24:22;;;;;;;;;;;15.40;99.90;;;;;;5094301;27;38580;-57
2022/06/11 03:26:49;;;;;;;;;;;15.40;99.90;;;;;;5094143;27;37780;-57
2022/06/11 03:29:16;;;;;;;;;;;15.40;99.90;;;;;;5094796;27;36075;-57
2022/06/11 03:31:44;;;;;;;;;;;15.40;99.90;;;;;;5093606;27;37378;-57
2022/06/11 03:34:11;;;;;;;;;;;15.40;99.90;;;;;;5093943;28;37857;-57
2022/06/11 03:36:40;;;;;;;;;;;15.40;99.90;;;;;;5094298;27;36630;-56
2022/06/11 03:39:07;;;;;;;;;;;15.40;99.90;;;;;;5094021;27;38377;-57
2022/06/11 03:41:36;;;;;;;;;;;15.40;99.90;;;;;;5094131;27;38149;-57
2022/06/11 03:44:03;;;;;;;;;;;15.40;99.90;;;;;;5093287;27;38499;-57
2022/06/11 03:46:30;;;;;;;;;;;15.50;99.90;;;;;;5094061;27;37580;-57
2022/06/11 03:48:58;;;;;;;;;;;15.40;99.90;;;;;;5093303;27;37326;-57
2022/06/11 03:51:25;;;;;;;;;;;15.50;99.90;;;;;;5093229;27;37965;-56
2022/06/11 03:53:52;;;;;;;;;;;15.60;99.90;;;;;;5090725;27;36011;-57
2022/06/11 03:56:19;;;;;;;;;;;15.60;99.90;;;;;;5092871;27;37001;-56
2022/06/11 03:58:49;;;;;;;;;;;15.60;99.90;;;;;;5093328;28;37526;-57
2022/06/11 04:01:16;;;;;;;;;;;15.70;99.90;;;;;;5092722;27;38953;-57
2022/06/11 04:03:44;;;;;;;;;;;15.80;99.90;;;;;;5093419;27;36097;-57
2022/06/11 04:06:11;;;;;;;;;;;15.80;99.90;;;;;;5093330;28;36013;-57
2022/06/11 04:08:39;;;;;;;;;;;15.80;99.90;;;;;;5093131;27;40343;-56
2022/06/11 04:11:06;;;;;;;;;;;15.90;99.90;;;;;;5093354;28;36728;-57
2022/06/11 04:13:34;;;;;;;;;;;15.90;99.90;;;;;;5093799;27;37616;-57
2022/06/11 04:16:03;;;;;;;;;;;16.00;99.90;;;;;;5093173;27;36612;-57
2022/06/11 04:18:31;;;;;;;;;;;16.10;99.90;;;;;;5093107;27;38464;-57
2022/06/11 04:20:59;;;;;;;;;;;16.20;99.90;;;;;;5093066;27;40431;-57
2022/06/11 04:23:29;;;;;;;;;;;16.30;99.90;;;;;;5092939;28;37766;-57
2022/06/11 04:25:57;;;;;;;;;;;16.30;99.90;;;;;;5093141;27;35001;-57
2022/06/11 04:28:24;;;;;;;;;;;16.40;99.90;;;;;;5093651;27;38509;-57
2022/06/11 04:30:51;;;;;;;;;;;16.50;99.90;;;;;;5092614;27;38024;-57
2022/06/11 04:33:20;;;;;;;;;;;16.60;99.90;;;;;;5093376;27;35989;-57
2022/06/11 04:35:47;;;;;;;;;;;16.70;99.90;;;;;;5092777;27;35010;-57
2022/06/11 04:38:15;;;;;;;;;;;16.80;99.90;;;;;;5092817;27;38382;-56
2022/06/11 04:40:42;;;;;;;;;;;16.90;99.90;;;;;;5092133;27;38833;-56
2022/06/11 04:43:10;;;;;;;;;;;17.00;99.90;;;;;;5093427;27;37800;-57
2022/06/11 04:45:37;;;;;;;;;;;17.00;99.90;;;;;;5093030;27;38353;-57
2022/06/11 04:48:05;;;;;;;;;;;17.10;99.90;;;;;;5093574;27;38409;-57
2022/06/11 04:50:34;;;;;;;;;;;17.20;99.90;;;;;;5092263;27;39417;-56
2022/06/11 04:53:01;;;;;;;;;;;17.30;99.90;;;;;;5092928;27;36152;-57
2022/06/11 04:55:28;;;;;;;;;;;17.30;99.90;;;;;;5093257;27;37183;-57
2022/06/11 04:57:56;;;;;;;;;;;17.40;99.90;;;;;;5092300;28;37520;-57
2022/06/11 05:00:24;;;;;;;;;;;17.50;99.90;;;;;;5093120;27;36687;-57
2022/06/11 05:02:52;;;;;;;;;;;17.50;99.90;;;;;;5093028;27;38915;-57
2022/06/11 05:05:19;;;;;;;;;;;17.60;99.90;;;;;;5093525;27;36160;-57
2022/06/11 05:07:47;;;;;;;;;;;17.70;99.90;;;;;;5091858;27;36540;-57
2022/06/11 05:10:15;;;;;;;;;;;17.70;99.90;;;;;;5092685;27;39801;-57
2022/06/11 05:12:42;;;;;;;;;;;17.80;99.90;;;;;;5093295;27;36057;-57
2022/06/11 05:15:10;;;;;;;;;;;17.90;99.90;;;;;;5093347;27;37034;-57
2022/06/11 05:17:37;;;;;;;;;;;18.00;99.90;;;;;;5092086;27;38227;-56
2022/06/11 05:20:05;;;;;;;;;;;18.00;99.90;;;;;;5092316;27;40179;-57
2022/06/11 05:22:32;;;;;;;;;;;18.10;99.90;;;;;;5091814;27;38474;-57
2022/06/11 05:25:01;;;;;;;;;;;18.20;99.90;;;;;;5092169;28;37307;-57
2022/06/11 05:27:28;;;;;;;;;;;18.20;99.90;;;;;;5092620;27;37669;-57
2022/06/11 05:29:57;;;;;;;;;;;18.30;99.90;;;;;;5092448;27;37410;-56
2022/06/11 05:32:26;;;;;;;;;;;18.40;99.90;;;;;;5092724;27;38938;-58
2022/06/11 05:34:54;;;;;;;;;;;18.50;99.90;;;;;;5092570;27;37010;-57
2022/06/11 05:37:21;;;;;;;;;;;18.50;99.90;;;;;;5092119;27;36522;-57
2022/06/11 05:39:48;;;;;;;;;;;18.60;99.90;;;;;;5092612;28;38755;-57
2022/06/11 05:42:17;;;;;;;;;;;18.60;99.90;;;;;;5092032;27;35994;-58
2022/06/11 05:44:45;;;;;;;;;;;18.70;99.90;;;;;;5092047;27;38084;-57
2022/06/11 05:47:13;;;;;;;;;;;18.80;99.90;;;;;;5091972;28;36500;-58
2022/06/11 05:49:43;;;;;;;;;;;18.80;99.90;;;;;;5092133;27;36800;-57
2022/06/11 05:52:13;;;;;;;;;;;18.80;99.90;;;;;;5091215;27;37027;-57
2022/06/11 05:54:41;;;;;;;;;;;18.90;99.90;;;;;;5092360;27;35245;-57
2022/06/11 05:57:09;;;;;;;;;;;19.00;99.90;;;;;;5091166;27;37868;-57
2022/06/11 05:59:40;;;;;;;;;;;19.10;99.90;;;;;;5091877;27;40708;-57
2022/06/11 06:02:10;;;;;;;;;;;19.30;99.90;;;;;;5091066;27;37709;-57
2022/06/11 06:04:37;;;;;;;;;;;19.20;99.90;;;;;;5091570;28;35085;-57
2022/06/11 06:07:05;;;;;;;;;;;19.30;99.90;;;;;;5091905;27;37446;-57
2022/06/11 06:09:32;;;;;;;;;;;19.30;99.90;;;;;;5091269;28;37950;-57
2022/06/11 06:11:59;;;;;;;;;;;19.40;99.90;;;;;;5091593;27;37241;-57
2022/06/11 06:14:26;;;;;;;;;;;19.40;99.90;;;;;;5090484;27;37692;-57
2022/06/11 06:16:55;;;;;;;;;;;19.50;99.90;;;;;;5092333;27;37541;-58
2022/06/11 06:19:22;;;;;;;;;;;19.50;99.90;;;;;;5091987;27;37881;-57
2022/06/11 06:21:49;;;;;;;;;;;19.50;99.90;;;;;;5091650;27;38157;-57
2022/06/11 06:24:16;;;;;;;;;;;19.60;99.90;;;;;;5091654;28;36268;-58
2022/06/11 06:26:43;;;;;;;;;;;19.60;99.90;;;;;;5091141;27;37849;-57
2022/06/11 06:29:10;;;;;;;;;;;19.70;99.90;;;;;;5092086;27;36516;-57
2022/06/11 06:31:38;;;;;;;;;;;19.80;99.90;;;;;;5091669;27;37777;-57
2022/06/11 06:34:06;;;;;;;;;;;19.80;99.90;;;;;;5090754;28;38423;-57
2022/06/11 06:36:34;;;;;;;;;;;19.90;99.90;;;;;;5091441;27;38581;-57
2022/06/11 06:39:01;;;;;;;;;;;19.90;99.90;;;;;;5090852;27;37872;-57
2022/06/11 06:41:28;;;;;;;;;;;19.90;99.90;;;;;;5091644;27;37131;-57
2022/06/11 06:43:55;;;;;;;;;;;20.00;99.90;;;;;;5091663;27;35247;-58
2022/06/11 06:46:22;;;;;;;;;;;20.00;99.90;;;;;;5090514;27;38527;-57
2022/06/11 06:48:49;;;;;;;;;;;20.10;99.90;;;;;;5090770;27;36680;-58
2022/06/11 06:51:18;;;;;;;;;;;20.20;99.90;;;;;;5091745;27;36995;-57
2022/06/11 06:53:46;;;;;;;;;;;20.30;99.90;;;;;;5091982;27;36402;-57
2022/06/11 06:56:13;;;;;;;;;;;20.30;99.90;;;;;;5093550;27;38534;-57
2022/06/11 06:58:41;;;;;;;;;;;20.40;99.90;;;;;;5093046;27;39001;-57
2022/06/11 07:01:08;;;;;;;;;;;20.40;99.90;;;;;;5093920;27;38153;-57
2022/06/11 07:03:35;;;;;;;;;;;20.40;99.90;;;;;;5093986;27;39070;-57
2022/06/11 07:06:02;;;;;;;;;;;20.30;99.40;;;;;;5093045;27;37849;-57
2022/06/11 07:08:31;;;;;;;;;;;20.20;99.60;;;;;;5093861;27;38044;-58
2022/06/11 07:10:58;;;;;;;;;;;20.10;99.90;;;;;;5094315;27;38148;-57
2022/06/11 07:13:25;;;;;;;;;;;20.30;99.90;;;;;;5095256;27;35206;-57
2022/06/11 07:15:53;;;;;;;;;;;20.40;99.90;;;;;;5095104;27;38625;-58
2022/06/11 07:18:22;;;;;;;;;;;20.40;99.90;;;;;;5093408;27;39463;-57
2022/06/11 07:20:50;;;;;;;;;;;20.40;99.90;;;;;;5095045;27;38398;-57
2022/06/11 07:23:18;;;;;;;;;;;20.30;99.80;;;;;;5094108;27;37129;-57
2022/06/11 07:25:47;;;;;;;;;;;20.20;99.70;;;;;;5093935;27;37765;-58
2022/06/11 07:28:16;;;;;;;;;;;20.30;99.90;;;;;;5094236;27;38896;-58
2022/06/11 07:30:44;;;;;;;;;;;20.30;99.90;;;;;;5093605;27;37659;-58
2022/06/11 07:33:12;;;;;;;;;;;20.30;99.90;;;;;;5092752;27;37048;-57
2022/06/11 07:35:39;;;;;;;;;;;20.40;99.90;;;;;;5092374;27;37557;-57
2022/06/11 07:38:09;;;;;;;;;;;20.50;99.90;;;;;;5093343;27;36734;-58
2022/06/11 07:40:36;;;;;;;;;;;20.50;99.80;;;;;;5093492;27;39097;-57
2022/06/11 07:43:06;;;;;;;;;;;20.50;99.20;;;;;;5093550;27;35016;-57
2022/06/11 07:45:33;;;;;;;;;;;20.50;98.80;;;;;;5092579;28;39542;-57
2022/06/11 07:48:00;;;;;;;;;;;20.50;99.00;;;;;;5094757;27;36748;-57
2022/06/11 07:50:28;;;;;;;;;;;20.50;99.40;;;;;;5094209;27;37997;-57
2022/06/11 07:52:56;;;;;;;;;;;20.40;98.60;;;;;;5093401;27;36655;-58
2022/06/11 07:55:24;;;;;;;;;;;20.50;99.40;;;;;;5094310;27;36431;-57
2022/06/11 07:57:51;;;;;;;;;;;20.50;99.40;;;;;;5094366;27;37449;-58
2022/06/11 08:00:21;;;;;;;;;;;20.60;99.40;;;;;;5093743;27;37198;-58
2022/06/11 08:02:48;;;;;;;;;;;20.80;99.20;;;;;;5092932;27;37254;-57
2022/06/11 08:05:16;;;;;;;;;;;20.90;98.20;;;;;;5091693;27;38400;-57
2022/06/11 08:07:43;;;;;;;;;;;20.90;98.80;;;;;;5093693;27;38508;-58
2022/06/11 08:10:10;;;;;;;;;;;20.90;98.70;;;;;;5094127;27;37019;-58
2022/06/11 08:12:38;;;;;;;;;;;21.00;98.10;;;;;;5093876;27;37507;-58
2022/06/11 08:15:05;;;;;;;;;;;21.00;97.80;;;;;;5093859;27;38624;-58
2022/06/11 08:17:36;;;;;;;;;;;21.00;97.70;;;;;;5094513;27;37362;-58
2022/06/11 08:20:04;;;;;;;;;;;21.10;98.00;;;;;;5092453;27;40354;-57
2022/06/11 08:22:31;;;;;;;;;;;21.20;98.10;;;;;;5092336;27;36369;-58
2022/06/11 08:24:59;;;;;;;;;;;21.20;97.90;;;;;;5093076;27;36538;-58
2022/06/11 08:27:26;;;;;;;;;;;21.10;96.90;;;;;;5093443;27;38893;-58
2022/06/11 08:29:53;;;;;;;;;;;21.10;97.20;;;;;;5093739;27;37176;-58
2022/06/11 08:32:21;;;;;;;;;;;21.10;96.70;;;;;;5093354;27;35178;-58
2022/06/11 08:34:49;;;;;;;;;;;21.00;97.70;;;;;;5091442;27;38003;-58
2022/06/11 08:37:16;;;;;;;;;;;21.10;97.30;;;;;;5093066;27;39789;-58
2022/06/11 08:39:43;;;;;;;;;;;21.20;97.70;;;;;;5091786;27;36057;-58
2022/06/11 08:42:28;;;;;;;;;;;21.40;97.10;;;;;;5092546;27;36696;-58
2022/06/11 08:44:55;;;;;;;;;;;21.60;97.00;;;;;;5093369;27;36411;-58
2022/06/11 08:47:24;;;;;;;;;;;21.70;95.60;;;;;;5092811;27;37765;-58
2022/06/11 08:49:55;;;;;;;;;;;21.80;96.40;;;;;;5093400;27;38156;-58
2022/06/11 08:52:24;;;;;;;;;;;22.00;96.50;;;;;;5092098;27;36572;-58
2022/06/11 08:54:52;;;;;;;;;;;22.20;96.30;;;;;;5093032;27;37286;-58
2022/06/11 08:57:35;;;;;;;;;;;22.30;95.40;;;;;;5092262;27;38051;-58
2022/06/11 09:00:05;;;;;;;;;;;22.40;95.20;;;;;;5093568;27;38513;-58
2022/06/11 09:02:47;;;;;;;;;;;22.20;92.80;;;;;;5092538;27;35899;-58
2022/06/11 09:05:24;;;;;;;;;;;22.10;92.40;;;;;;5092082;27;38679;-58
2022/06/11 09:07:58;;;;;;;;;;;22.10;92.50;;;;;;5092627;27;36667;-58
2022/06/11 09:10:37;;;;;;;;;;;22.20;93.30;;;;;;5092661;27;36558;-58
2022/06/11 09:13:31;;;;;;;;;;;22.30;93.70;;;;;;5091441;28;37213;-58
2022/06/11 09:16:05;;;;;;;;;;;22.40;93.20;;;;;;5066500;27;37906;-58
2022/06/11 09:18:40;;;;;;;;;;;22.40;90.30;;;;;;5092727;27;38447;-58
2022/06/11 09:21:14;;;;;;;;;;;22.30;90.30;;;;;;5092096;28;37125;-58
2022/06/11 09:23:50;;;;;;;;;;;22.20;91.40;;;;;;5092148;27;35508;-58
2022/06/11 09:26:24;;;;;;;;;;;22.40;92.20;;;;;;5092727;28;36502;-58
2022/06/11 09:28:55;;;;;;;;;;;22.30;91.60;;;;;;5092157;27;36767;-58
2022/06/11 09:31:34;;;;;;;;;;;22.40;91.40;;;;;;5092627;27;36686;-58
2022/06/11 09:34:05;;;;;;;;;;;22.50;92.10;;;;;;5091786;27;34440;-58
2022/06/11 09:36:35;;;;;;;;;;;22.70;88.40;;;;;;5092541;27;36821;-58
2022/06/11 09:39:08;;;;;;;;;;;22.70;89.40;;;;;;5092383;28;38648;-58
2022/06/11 09:41:41;;;;;;;;;;;22.70;83.90;;;;;;5092153;27;35992;-58
2022/06/11 09:44:18;;;;;;;;;;;22.80;86.80;;;;;;5092018;27;35977;-58
2022/06/11 09:46:48;;;;;;;;;;;22.90;84.70;;;;;;5091957;27;37639;-58
2022/06/11 09:49:20;;;;;;;;;;;23.00;79.20;;;;;;5092562;28;36615;-58
2022/06/11 09:51:52;;;;;;;;;;;23.10;79.70;;;;;;5090077;27;36059;-58
2022/06/11 09:54:35;;;;;;;;;;;23.20;79.30;;;;;;5091611;28;37785;-58
2022/06/11 09:57:09;;;;;;;;;;;23.20;77.50;;;;;;5090632;28;34059;-58
2022/06/11 09:59:38;;;;;;;;;;;23.30;79.30;;;;;;5092516;27;39035;-58
2022/06/11 10:02:17;;;;;;;;;;;23.40;78.00;;;;;;5092734;27;35956;-58
2022/06/11 10:04:46;;;;;;;;;;;23.40;79.60;;;;;;5091421;27;36353;-58
2022/06/11 10:07:17;;;;;;;;;;;23.50;80.90;;;;;;5092054;27;37493;-58
2022/06/11 10:09:46;;;;;;;;;;;23.60;77.90;;;;;;5091505;27;37996;-58
2022/06/11 10:12:17;;;;;;;;;;;23.70;73.30;;;;;;5092216;27;37378;-58
2022/06/11 10:14:47;;;;;;;;;;;23.60;71.90;;;;;;5092366;27;36471;-58
2022/06/11 10:17:17;;;;;;;;;;;23.60;73.10;;;;;;5091786;27;36392;-58
2022/06/11 10:19:48;;;;;;;;;;;23.40;69.10;;;;;;5090834;27;38050;-58
2022/06/11 10:22:18;;;;;;;;;;;23.10;71.80;;;;;;5090854;28;36871;-58
2022/06/11 10:24:54;;;;;;;;;;;22.90;74.00;;;;;;5091598;27;37820;-58
2022/06/11 10:27:22;;;;;;;;;;;22.80;73.90;;;;;;5090558;28;38323;-58
2022/06/11 10:29:50;;;;;;;;;;;22.60;75.30;;;;;;5091382;27;36699;-58
2022/06/11 10:32:21;;;;;;;;;;;22.40;79.50;;;;;;5091509;27;37095;-58
2022/06/11 10:34:50;;;;;;;;;;;22.30;81.10;;;;;;5089081;27;38294;-56
2022/06/11 10:37:21;;;;;;;;;;;22.10;80.10;;;;;;5088020;27;36435;-58
2022/06/11 10:39:52;;;;;;;;;;;22.00;81.50;;;;;;5090497;27;37689;-58
2022/06/11 10:42:21;;;;;;;;;;;21.90;80.30;;;;;;5090177;27;36864;-58
2022/06/11 10:44:50;;;;;;;;;;;21.70;79.40;;;;;;5089512;28;36240;-58
2022/06/11 10:47:18;;;;;;;;;;;21.60;76.00;;;;;;5091206;27;41221;-58
2022/06/11 10:49:46;;;;;;;;;;;21.60;77.00;;;;;;5090689;28;38589;-58
2022/06/11 10:52:23;;;;;;;;;;;21.60;77.00;;;;;;5090936;27;38298;-58
2022/06/11 10:54:50;;;;;;;;;;;21.80;83.20;;;;;;5090928;27;36599;-58
2022/06/11 10:57:22;;;;;;;;;;;21.90;78.20;;;;;;5090359;27;38113;-58
2022/06/11 10:59:52;;;;;;;;;;;22.00;74.80;;;;;;5090589;27;38538;-58
2022/06/11 11:02:22;;;;;;;;;;;22.00;77.70;;;;;;5091194;27;37012;-58
2022/06/11 11:04:57;;;;;;;;;;;22.10;76.60;;;;;;5090938;27;36052;-58
2022/06/11 11:07:26;;;;;;;;;;;22.20;74.80;;;;;;5090874;27;38712;-58
2022/06/11 11:09:57;;;;;;;;;;;22.30;76.70;;;;;;5090793;27;37810;-57
2022/06/11 11:12:27;;;;;;;;;;;22.30;78.30;;;;;;5090704;28;37223;-58
2022/06/11 11:14:59;;;;;;;;;;;22.20;83.50;;;;;;5090685;27;37041;-58
2022/06/11 11:17:27;;;;;;;;;;;22.30;79.50;;;;;;5090548;28;38116;-57
2022/06/11 11:22:38;;;;;;;;;;;22.20;78.20;;;;;;5089058;28;39176;-58
2022/06/11 11:25:11;;;;;;;;;;;22.00;78.50;;;;;;5090702;27;36535;-58
2022/06/11 11:27:44;;;;;;;;;;;21.90;79.90;;;;;;5090738;27;40434;-58
2022/06/11 11:30:20;;;;;;;;;;;21.80;79.10;;;;;;5089394;27;37907;-58
2022/06/11 11:32:48;;;;;;;;;;;21.70;80.70;;;;;;5090958;27;36650;-58
2022/06/11 11:35:16;;;;;;;;;;;21.80;83.70;;;;;;5090335;27;36923;-57
2022/06/11 11:37:45;;;;;;;;;;;22.00;80.90;;;;;;5090381;27;38296;-58
2022/06/11 11:40:24;;;;;;;;;;;21.90;79.80;;;;;;5091746;27;39451;-58
2022/06/11 11:42:52;;;;;;;;;;;21.90;83.00;;;;;;5093603;27;38037;-58
2022/06/11 11:45:21;;;;;;;;;;;21.90;79.50;;;;;;5094733;28;35793;-58
2022/06/11 11:47:49;;;;;;;;;;;21.90;79.70;;;;;;5093880;27;36619;-58
2022/06/11 11:50:20;;;;;;;;;;;22.00;85.30;;;;;;5093383;27;37510;-58
2022/06/11 11:52:52;;;;;;;;;;;22.10;83.40;;;;;;5093223;27;36533;-58
2022/06/11 11:55:22;;;;;;;;;;;22.10;84.10;;;;;;5093681;28;35144;-57
2022/06/11 11:57:54;;;;;;;;;;;22.30;84.80;;;;;;5094037;27;38311;-58
2022/06/11 12:00:26;;;;;;;;;;;22.30;78.50;;;;;;5094300;27;38480;-58
2022/06/11 12:02:55;;;;;;;;;;;22.40;82.40;;;;;;5093735;28;37730;-58
2022/06/11 12:05:22;;;;;;;;;;;22.50;82.40;;;;;;5092609;27;37518;-58
2022/06/11 12:07:52;;;;;;;;;;;22.70;85.00;;;;;;5094095;27;38937;-58
2022/06/11 12:10:29;;;;;;;;;;;22.60;76.40;;;;;;5093421;27;38934;-58
2022/06/11 12:12:57;;;;;;;;;;;22.50;76.40;;;;;;5094085;27;39256;-57
2022/06/11 12:15:26;;;;;;;;;;;22.30;70.70;;;;;;5093016;27;37174;-58
2022/06/11 12:17:55;;;;;;;;;;;22.20;72.70;;;;;;5092909;27;36406;-58
2022/06/11 12:20:31;;;;;;;;;;;22.10;70.80;;;;;;5092501;28;39515;-58
2022/06/11 12:23:03;;;;;;;;;;;22.00;71.70;;;;;;5093693;27;37528;-58
2022/06/11 12:25:41;;;;;;;;;;;22.00;73.30;;;;;;5093641;27;37159;-58
2022/06/11 12:28:11;;;;;;;;;;;22.10;72.00;;;;;;5093371;27;37350;-58
2022/06/11 12:30:38;;;;;;;;;;;22.10;72.30;;;;;;5092690;27;38484;-58
2022/06/11 12:33:07;;;;;;;;;;;22.10;69.20;;;;;;5092596;27;36041;-58
2022/06/11 12:35:42;;;;;;;;;;;22.10;68.30;;;;;;5093044;28;35875;-58
2022/06/11 12:38:13;;;;;;;;;;;22.00;74.60;;;;;;5092793;27;38766;-57
2022/06/11 12:40:44;;;;;;;;;;;22.10;75.70;;;;;;5093078;27;36508;-58
2022/06/11 12:43:20;;;;;;;;;;;22.10;76.00;;;;;;5093002;27;37322;-58
2022/06/11 12:45:53;;;;;;;;;;;22.10;72.20;;;;;;5093527;28;35117;-58
2022/06/11 12:48:27;;;;;;;;;;;22.10;75.90;;;;;;5091407;28;39468;-58
2022/06/11 12:51:00;;;;;;;;;;;22.10;74.20;;;;;;5091880;27;38049;-58
2022/06/11 12:53:36;;;;;;;;;;;22.00;75.40;;;;;;5091693;27;35948;-58
2022/06/11 12:56:12;;;;;;;;;;;22.00;78.90;;;;;;5092433;28;36284;-57
2022/06/11 12:58:46;;;;;;;;;;;22.00;75.10;;;;;;5092293;27;36513;-58
2022/06/11 13:01:18;;;;;;;;;;;22.00;81.10;;;;;;5093656;27;37880;-58
2022/06/11 13:03:57;;;;;;;;;;;22.00;77.00;;;;;;5093080;27;38190;-58
2022/06/11 13:06:40;;;;;;;;;;;22.00;78.20;;;;;;5092566;27;36155;-57
2022/06/11 13:09:15;;;;;;;;;;;22.00;78.40;;;;;;5090555;28;36537;-58
2022/06/11 13:11:47;;;;;;;;;;;22.00;78.70;;;;;;5093017;27;38116;-58
2022/06/11 13:14:29;;;;;;;;;;;22.10;76.70;;;;;;5093032;27;37272;-58
2022/06/11 13:17:03;;;;;;;;;;;22.10;76.40;;;;;;5093054;27;35102;-58
2022/06/11 13:19:36;;;;;;;;;;;22.10;74.10;;;;;;5092931;27;37058;-58
2022/06/11 13:22:06;;;;;;;;;;;22.00;73.80;;;;;;5092696;27;38833;-58
2022/06/11 13:24:39;;;;;;;;;;;22.00;76.90;;;;;;5092239;27;36035;-58
2022/06/11 13:27:12;;;;;;;;;;;22.00;77.10;;;;;;5092499;27;36974;-57
2022/06/11 13:29:47;;;;;;;;;;;21.90;74.90;;;;;;5093432;27;38346;-58
2022/06/11 13:32:17;;;;;;;;;;;21.90;78.10;;;;;;5092277;27;37301;-58
2022/06/11 13:34:50;;;;;;;;;;;21.90;76.30;;;;;;5091540;27;37645;-56
2022/06/11 13:37:28;;;;;;;;;;;21.90;78.10;;;;;;5092154;27;35109;-56
2022/06/11 13:40:02;;;;;;;;;;;21.90;78.30;;;;;;5091701;27;39463;-56
2022/06/11 13:42:34;;;;;;;;;;;22.00;81.90;;;;;;5092644;27;36758;-55
2022/06/11 13:45:08;;;;;;;;;;;22.00;81.40;;;;;;5092419;27;36869;-55
2022/06/11 13:47:47;;;;;;;;;;;22.10;82.00;;;;;;5092494;27;35203;-56
2022/06/11 13:50:25;;;;;;;;;;;22.10;83.10;;;;;;5091881;27;38132;-56
2022/06/11 13:55:42;;;;;;;;;;;22.10;82.50;;;;;;5092569;27;38717;-58
2022/06/11 13:58:17;;;;;;;;;;;22.00;83.00;;;;;;5090857;27;37025;-58
2022/06/11 14:00:55;;;;;;;;;;;22.00;83.10;;;;;;5092960;27;37837;-58
2022/06/11 14:03:35;;;;;;;;;;;22.00;81.60;;;;;;5091272;27;38580;-57
2022/06/11 14:06:05;;;;;;;;;;;22.00;82.70;;;;;;5092154;27;38340;-57
2022/06/11 14:08:37;;;;;;;;;;;22.00;81.80;;;;;;5091665;27;37576;-58
2022/06/11 14:11:14;;;;;;;;;;;22.00;85.10;;;;;;5090721;28;38245;-58
2022/06/11 14:13:53;;;;;;;;;;;21.90;79.90;;;;;;5090074;27;36797;-57
2022/06/11 14:16:37;;;;;;;;;;;21.80;80.80;;;;;;5091834;27;37412;-58
2022/06/11 14:19:19;;;;;;;;;;;21.80;80.80;;;;;;5090469;27;36502;-58
2022/06/11 14:21:48;;;;;;;;;;;21.70;81.60;;;;;;5091614;27;38739;-57
2022/06/11 14:24:30;;;;;;;;;;;21.50;80.20;;;;;;5091658;28;37576;-57
2022/06/11 14:26:58;;;;;;;;;;;21.50;82.00;;;;;;5090987;28;37341;-57
2022/06/11 14:29:27;;;;;;;;;;;21.40;85.00;;;;;;5090400;27;36348;-57
2022/06/11 14:31:56;;;;;;;;;;;21.40;86.00;;;;;;5090216;27;39237;-57
2022/06/11 14:34:24;;;;;;;;;;;21.40;86.90;;;;;;5091443;27;37660;-57
2022/06/11 14:37:06;;;;;;;;;;;21.40;86.50;;;;;;5091495;27;37722;-58
2022/06/11 14:39:35;;;;;;;;;;;21.50;89.90;;;;;;5090383;27;36230;-58